Latest Weather Observations for Newdegate

IDW60801

Issued at 9:43 am WST Tuesday 22 September 2020 (issued every 10 minutes, with the page automatically refreshed every 10 minutes)

About weather observations | Map of weather stations | Latest weather observations for WA | Other Formats
Station Details ID: 010692 Name: NEWDEGATE RESEARCH STATION Lat: -33.11 Lon: 118.84 Height: 320.0 m
Data from the previous 72 hours. | See also: Recent months at Newdegate
Date/Time
WST
Temp
°C
App
Temp
°C
Dew
Point
°C
Rel
Hum
%
Delta-T
°C
Wind Press
QNH
hPa
Press
MSL
hPa
Rain since
9am
mm
Dir  Spd
km/h
Gust
km/h
Spd
kts
Gust
kts
22/09:30am 14.3 9.7 5.4 55 4.3 WSW 19 28 10 15 1023.3 1023.3 0.0
22/09:00am 13.8 8.9 5.2 56 4.1 WSW 20 28 11 15 1023.2 1023.2 0.0
22/08:30am 12.8 9.0 5.9 63 3.3 SW 15 20 8 11 1023.1 1023.1 0.0
22/08:00am 11.9 7.9 6.6 70 2.6 SW 17 20 9 11 1023.0 1023.0 0.0
22/07:30am 10.7 7.2 7.2 79 1.7 SW 15 20 8 11 1022.6 1022.6 0.0
22/07:00am 9.7 7.8 7.6 87 1.0 SW 7 13 4 7 1022.1 1022.2 0.0
22/06:30am 8.8 7.3 6.9 88 0.9 SW 4 6 2 3 1021.6 1021.6 0.0
22/06:00am 9.0 7.0 7.1 88 0.9 SW 7 11 4 6 1021.2 1021.2 0.0
22/05:30am 9.8 7.2 7.9 88 0.9 SW 11 15 6 8 1020.9 1020.9 0.0
22/05:00am 10.0 7.5 8.3 89 0.8 WSW 11 17 6 9 1020.6 1020.6 0.0
22/04:30am 9.9 7.4 8.2 89 0.8 WSW 11 17 6 9 1020.3 1020.3 0.0
22/04:00am 10.0 6.4 8.4 90 0.8 WSW 17 26 9 14 1020.1 1020.1 0.0
22/03:30am 9.5 6.9 7.6 88 0.9 WSW 11 17 6 9 1020.0 1020.0 0.0
22/03:00am 9.5 6.7 7.1 85 1.1 W 11 17 6 9 1019.9 1019.9 0.0
22/02:30am 9.3 6.0 6.6 83 1.3 W 13 19 7 10 1019.8 1019.8 0.0
22/02:00am 9.1 5.8 6.2 82 1.4 W 13 20 7 11 1019.7 1019.7 0.0
22/01:30am 8.6 5.5 5.7 82 1.3 W 11 15 6 8 1019.9 1019.9 0.0
22/01:00am 9.2 5.8 5.9 80 1.5 W 13 20 7 11 1019.7 1019.7 0.0
22/12:30am 8.9 5.8 5.6 80 1.5 WNW 11 19 6 10 1019.9 1019.9 0.0
22/12:00am 8.7 5.6 5.4 80 1.5 WNW 11 17 6 9 1020.0 1020.0 0.0
 
Date/Time
WST
Temp
°C
App
Temp
°C
Dew
Point
°C
Rel
Hum
%
Delta-T
°C
Wind Press
QNH
hPa
Press
MSL
hPa
Rain since
9am
mm
Dir  Spd
km/h
Gust
km/h
Spd
kts
Gust
kts
21/11:30pm 8.7 5.4 4.7 76 1.8 W 11 17 6 9 1020.2 1020.2 0.0
21/11:00pm 8.9 5.6 4.3 73 2.1 W 11 17 6 9 1020.3 1020.3 0.0
21/10:30pm 9.1 6.6 4.5 73 2.1 W 7 13 4 7 1020.3 1020.3 0.0
21/10:00pm 7.7 4.9 3.4 74 1.9 WSW 7 9 4 5 1020.6 1020.6 0.0
21/09:30pm 9.0 6.5 3.6 69 2.4 W 6 9 3 5 1020.6 1020.6 0.0
21/09:00pm 9.3 6.6 3.5 67 2.6 WSW 7 9 4 5 1020.6 1020.6 0.0
21/08:30pm 10.3 7.8 3.6 63 3.0 WSW 6 9 3 5 1020.7 1020.7 0.0
21/08:00pm 12.7 9.3 4.2 56 3.9 WSW 11 15 6 8 1020.6 1020.6 0.0
21/07:30pm 13.2 8.3 4.1 54 4.2 WSW 19 28 10 15 1020.5 1020.5 0.0
21/07:00pm 13.6 9.4 3.7 51 4.5 WSW 15 22 8 12 1020.1 1020.1 0.0
21/06:30pm 13.7 10.5 2.9 48 4.9 WSW 9 15 5 8 1019.9 1019.9 0.0
21/06:00pm 14.0 8.9 2.9 47 5.0 WSW 19 24 10 13 1019.9 1019.9 0.0
21/05:30pm 14.2 8.9 3.1 47 5.1 WSW 20 28 11 15 1019.7 1019.7 0.0
21/05:00pm 14.4 9.1 3.2 47 5.1 WSW 20 28 11 15 1019.4 1019.4 0.0
21/04:30pm 14.4 8.8 3.2 47 5.1 WSW 22 30 12 16 1019.3 1019.3 0.0
21/04:00pm 14.9 9.2 3.1 45 5.4 WSW 22 33 12 18 1019.0 1018.9 0.0
21/03:30pm 16.1 10.4 2.9 41 6.1 WSW 22 30 12 16 1018.6 1018.6 0.0
21/03:00pm 15.8 10.0 2.2 40 6.2 WSW 22 33 12 18 1018.5 1018.5 0.0
21/02:30pm 15.6 10.1 2.1 40 6.1 WSW 20 33 11 18 1018.5 1018.5 0.0
21/02:00pm 15.9 9.2 1.6 38 6.4 WSW 26 37 14 20 1018.5 1018.5 0.0
21/01:30pm 16.2 10.8 2.6 40 6.2 WSW 20 33 11 18 1018.7 1018.7 0.0
21/01:00pm 15.1 9.2 1.6 40 6.0 SW 22 32 12 17 1018.7 1018.7 0.0
21/12:30pm 14.9 8.7 2.1 42 5.8 SW 24 41 13 22 1018.7 1018.7 0.0
21/12:00pm 14.6 8.7 1.5 41 5.8 SW 22 37 12 20 1018.8 1018.8 0.0
21/11:30am 14.4 8.6 2.3 44 5.4 WSW 22 33 12 18 1019.1 1019.0 0.0
21/11:00am 14.2 8.4 2.5 45 5.3 SW 22 32 12 17 1019.3 1019.3 0.0
21/10:30am 13.9 7.8 2.8 47 5.0 SW 24 33 13 18 1019.4 1019.4 0.0
21/10:00am 13.6 7.6 3.1 49 4.8 SW 24 37 13 20 1019.4 1019.4 0.0
21/09:30am 12.6 6.3 3.8 55 4.0 SW 26 35 14 19 1019.6 1019.6 0.0
21/09:00am 12.1 5.1 4.1 58 3.7 SW 30 43 16 23 1019.5 1019.5 0.0
21/08:30am 10.7 3.6 3.7 62 3.1 WSW 30 43 16 23 1019.6 1019.6 0.0
21/08:00am 10.0 3.4 4.4 68 2.5 SW 28 39 15 21 1019.3 1019.3 0.0
21/07:30am 9.4 2.5 4.6 72 2.2 WSW 30 41 16 22 1019.1 1019.0 0.0
21/07:00am 8.6 2.8 4.2 74 2.0 WSW 24 33 13 18 1018.6 1018.6 0.0
21/06:30am 8.8 3.5 5.2 78 1.6 WSW 22 30 12 16 1018.3 1018.3 0.0
21/06:00am 8.8 2.3 4.6 75 1.9 SW 28 41 15 22 1017.8 1017.8 0.0
21/05:30am 8.7 2.6 4.9 77 1.7 WSW 26 37 14 20 1017.5 1017.5 0.0
21/05:00am 8.6 1.4 5.2 79 1.5 WSW 32 43 17 23 1017.2 1017.2 0.0
21/04:30am 8.3 3.7 5.8 84 1.2 WSW 19 28 10 15 1016.9 1016.9 0.0
21/04:00am 8.5 2.6 5.8 83 1.2 WSW 26 39 14 21 1016.8 1016.8 0.0
21/03:30am 8.2 3.7 6.3 88 0.9 WSW 19 26 10 14 1016.6 1016.6 0.0
21/03:00am 9.0 3.1 5.7 80 1.5 WSW 26 37 14 20 1016.5 1016.5 0.0
21/02:30am 9.2 3.3 5.6 78 1.7 WSW 26 41 14 22 1016.5 1016.5 0.0
21/02:00am 9.2 3.7 5.8 79 1.6 WSW 24 35 13 19 1016.4 1016.3 0.0
21/01:30am 9.2 3.7 5.9 80 1.5 WSW 24 33 13 18 1016.2 1016.1 0.0
21/01:00am 9.1 4.0 5.8 80 1.5 WSW 22 33 12 18 1016.1 1016.0 0.0
21/12:30am 9.0 3.9 6.1 82 1.4 WSW 22 32 12 17 1016.2 1016.1 0.0
21/12:00am 9.3 3.8 5.7 78 1.7 W 24 41 13 22 1016.1 1016.0 0.0
 
Date/Time
WST
Temp
°C
App
Temp
°C
Dew
Point
°C
Rel
Hum
%
Delta-T
°C
Wind Press
QNH
hPa
Press
MSL
hPa
Rain since
9am
mm
Dir  Spd
km/h
Gust
km/h
Spd
kts
Gust
kts
20/11:30pm 9.4 4.3 5.8 78 1.7 WSW 22 39 12 21 1016.0 1015.9 0.0
20/11:00pm 9.6 4.8 5.6 76 1.9 W 20 32 11 17 1016.2 1016.1 0.0
20/10:30pm 9.8 3.1 5.6 75 2.0 WSW 30 44 16 24 1016.1 1016.0 0.0
20/10:00pm 10.0 3.6 5.4 73 2.1 WSW 28 43 15 23 1016.0 1015.9 0.0
20/09:30pm 10.2 3.8 5.2 71 2.3 WSW 28 43 15 23 1015.9 1015.8 0.0
20/09:00pm 10.4 4.3 4.8 68 2.6 WSW 26 44 14 24 1016.0 1015.9 0.0
20/08:30pm 10.6 3.1 4.7 67 2.7 WSW 33 52 18 28 1015.8 1015.7 0.0
20/08:13pm 10.8 4.2 4.3 64 3.0 W 28 48 15 26 1015.7 1015.6 0.0
20/08:00pm 10.9 5.0 4.1 63 3.1 W 24 35 13 19 1015.3 1015.3 0.0
20/07:30pm 11.0 4.4 4.2 63 3.1 WSW 28 44 15 24 1014.9 1014.9 0.0
20/07:12pm 11.3 3.9 3.8 60 3.4 W 32 50 17 27 1014.3 1014.3 0.0
20/07:00pm 11.4 4.3 3.7 59 3.5 WSW 30 44 16 24 1014.1 1014.1 0.0
20/06:30pm 11.7 4.0 3.2 56 3.8 WSW 33 54 18 29 1013.5 1013.4 0.0
20/06:21pm 11.8 3.7 3.1 55 3.9 W 35 56 19 30 1013.5 1013.4 0.0
20/06:00pm 12.1 3.2 2.8 53 4.1 WSW 39 54 21 29 1013.1 1013.0 0.0
20/05:31pm 12.4 4.6 2.6 51 4.4 WSW 33 52 18 28 1012.6 1012.5 0.0
20/05:30pm 12.4 4.5 2.3 50 4.5 WSW 33 52 18 28 1012.7 1012.6 0.0
20/05:03pm 13.0 5.4 2.6 49 4.6 W 32 52 17 28 1012.1 1012.1 0.0
20/05:00pm 13.0 5.1 2.3 48 4.8 W 33 52 18 28 1012.0 1012.0 0.0
20/04:30pm 13.3 4.2 1.9 46 5.0 WSW 39 61 21 33 1011.7 1011.7 0.0
20/04:00pm 13.6 4.8 1.6 44 5.3 W 37 56 20 30 1011.2 1011.2 0.0
20/03:30pm 13.8 4.3 1.8 44 5.3 W 41 61 22 33 1010.6 1010.5 0.0
20/03:00pm 14.8 4.8 1.0 39 6.1 W 43 63 23 34 1010.1 1010.0 0.0
20/02:30pm 14.0 3.6 -0.1 38 6.0 W 44 72 24 39 1009.6 1009.5 0.0
20/02:00pm 13.8 3.4 -0.6 37 6.1 WSW 44 63 24 34 1009.5 1009.4 0.0
20/01:36pm 14.3 4.0 0.6 39 5.9 W 44 74 24 40 1009.4 1009.3 0.0
20/01:30pm 14.6 4.3 0.1 37 6.2 W 44 63 24 34 1009.2 1009.1 0.0
20/01:00pm 12.4 1.5 1.4 47 4.8 W 48 72 26 39 1009.5 1009.4 0.0
20/12:30pm 14.0 3.8 -0.1 38 6.0 W 43 61 23 33 1009.3 1009.2 0.0
20/12:00pm 13.0 2.3 0.4 42 5.4 W 46 65 25 35 1009.4 1009.3 0.0
20/11:30am 12.1 1.8 0.2 44 5.0 W 44 72 24 39 1009.7 1009.6 0.0
20/11:04am 12.6 3.4 1.0 45 5.0 W 39 57 21 31 1009.5 1009.4 0.0
20/11:00am 12.3 2.6 0.7 45 5.0 W 41 57 22 31 1009.5 1009.4 0.0
20/10:34am 12.9 3.6 0.6 43 5.3 W 39 57 21 31 1009.3 1009.2 0.0
20/10:30am 12.4 3.1 0.8 45 5.0 W 39 56 21 30 1009.3 1009.2 0.0
20/10:10am 12.3 3.4 1.0 46 4.8 W 37 57 20 31 1009.4 1009.3 0.0
20/10:00am 11.7 2.5 1.1 48 4.5 W 39 56 21 30 1009.4 1009.3 0.0
20/09:30am 11.6 2.8 1.5 50 4.4 W 37 59 20 32 1009.4 1009.3 0.0
20/09:00am 10.2 0.7 1.6 55 3.7 W 41 65 22 35 1009.5 1009.4 0.0
20/08:35am 9.8 1.1 1.9 58 3.4 W 37 67 20 36 1009.5 1009.4 0.0
20/08:30am 9.4 1.0 1.8 59 3.2 W 35 50 19 27 1009.5 1009.4 0.0
20/08:04am 8.7 1.0 2.1 63 2.8 W 32 50 17 27 1009.4 1009.3 0.0
20/08:00am 8.2 0.2 1.8 64 2.7 W 33 50 18 27 1009.3 1009.2 0.0
20/07:50am 7.8 0.1 2.1 67 2.4 W 32 52 17 28 1009.0 1009.0 0.0
20/07:30am 6.7 0.1 2.2 73 1.9 WNW 26 43 14 23 1009.0 1009.0 0.0
20/07:00am 5.5 -1.1 1.8 77 1.5 WNW 26 41 14 22 1008.5 1008.5 0.0
20/06:30am 4.6 -1.4 1.3 79 1.3 WNW 22 32 12 17 1008.2 1008.1 0.0
20/06:00am 4.2 -1.8 1.2 81 1.2 WNW 22 37 12 20 1008.0 1007.9 0.0
20/05:30am 4.1 -2.2 1.5 83 1.0 WNW 24 33 13 18 1007.8 1007.7 0.0
20/05:00am 4.0 -2.3 1.4 83 1.0 WNW 24 37 13 20 1007.6 1007.5 0.0
20/04:30am 4.0 -1.6 1.4 83 1.0 WNW 20 30 11 16 1007.7 1007.6 0.0
20/04:00am 3.9 -2.0 1.4 84 1.0 NW 22 32 12 17 1007.6 1007.5 0.0
20/03:30am 3.6 -2.0 1.2 84 0.9 NW 20 28 11 15 1007.6 1007.5 0.0
20/03:00am 3.7 -1.3 1.3 84 1.0 NW 17 24 9 13 1007.7 1007.6 0.0
20/02:30am 4.2 -1.4 1.4 82 1.1 WNW 20 30 11 16 1007.6 1007.5 0.0
20/02:00am 4.3 -1.3 1.2 80 1.2 WNW 20 30 11 16 1007.9 1007.8 0.0
20/01:30am 4.5 -0.9 1.2 79 1.3 WNW 19 30 10 16 1008.1 1008.0 0.0
20/01:00am 4.7 -0.7 1.2 78 1.4 WNW 19 26 10 14 1008.3 1008.2 0.0
20/12:30am 5.2 -0.3 1.7 78 1.4 WNW 20 30 11 16 1008.4 1008.3 0.0
20/12:00am 5.3 -0.2 2.0 79 1.4 WNW 20 30 11 16 1008.5 1008.5 0.0
 
Date/Time
WST
Temp
°C
App
Temp
°C
Dew
Point
°C
Rel
Hum
%
Delta-T
°C
Wind Press
QNH
hPa
Press
MSL
hPa
Rain since
9am
mm
Dir  Spd
km/h
Gust
km/h
Spd
kts
Gust
kts
19/11:30pm 5.5 -0.4 2.0 78 1.4 WNW 22 32 12 17 1008.2 1008.1 0.0
19/11:00pm 5.8 0.3 2.1 77 1.5 W 20 32 11 17 1008.4 1008.3 0.0
19/10:30pm 5.9 0.0 1.8 75 1.7 WNW 22 30 12 16 1008.3 1008.2 0.0
19/10:00pm 6.2 0.0 1.9 74 1.8 WNW 24 37 13 20 1008.4 1008.3 0.0
19/09:30pm 6.7 0.9 2.2 73 1.9 WNW 22 33 12 18 1008.3 1008.2 0.0
19/09:00pm 7.7 1.1 2.0 67 2.4 W 26 39 14 21 1007.9 1007.8 0.0
19/08:30pm 7.9 1.7 2.2 67 2.4 WNW 24 33 13 18 1007.8 1007.7 0.0
19/08:00pm 8.3 2.5 2.3 66 2.6 W 22 35 12 19 1007.8 1007.7 0.0
19/07:30pm 8.8 1.8 1.9 62 2.9 W 28 46 15 25 1007.4 1007.3 0.0
19/07:06pm 9.4 1.0 1.6 58 3.3 W 35 56 19 30 1007.1 1007.0 0.0
19/07:00pm 9.5 1.5 1.4 57 3.4 W 33 46 18 25 1007.0 1006.9 0.0
19/06:46pm 9.7 2.2 1.1 55 3.6 W 30 48 16 26 1006.9 1006.8 0.0
19/06:30pm 10.2 2.4 1.6 55 3.7 W 32 46 17 25 1006.7 1006.6 0.0
19/06:00pm 11.0 2.4 2.6 56 3.7 W 37 57 20 31 1006.3 1006.2 0.0
19/05:30pm 12.0 3.1 3.3 55 3.9 WSW 39 57 21 31 1005.9 1005.8 0.0
19/05:27pm 12.2 3.7 3.2 54 4.0 WSW 37 57 20 31 1005.6 1005.5 0.0
19/05:23pm 12.7 4.0 2.3 49 4.6 W 37 54 20 29 1005.5 1005.4 0.0
19/05:16pm 14.1 6.0 0.0 38 6.0 WNW 32 52 17 28 1005.1 1005.0 0.0
19/05:00pm 14.1 5.9 2.7 46 5.2 WNW 35 48 19 26 1004.9 1004.8 0.0
19/04:41pm 14.2 6.6 3.1 47 5.1 W 32 54 17 29 1004.7 1004.6 0.0
19/04:30pm 14.8 7.7 3.3 46 5.3 W 30 43 16 23 1004.7 1004.6 0.0
19/04:00pm 15.3 6.5 1.4 39 6.2 W 37 57 20 31 1004.3 1004.2 0.0
19/03:30pm 15.8 7.6 2.6 41 6.0 W 35 54 19 29 1003.8 1003.7 0.0
19/03:00pm 17.0 9.7 0.2 32 7.4 W 28 48 15 26 1003.4 1003.3 0.0
19/02:30pm 17.3 9.0 -0.4 30 7.7 WNW 33 52 18 28 1003.3 1003.2 0.0
19/02:00pm 16.9 8.7 0.1 32 7.4 W 33 54 18 29 1003.5 1003.4 0.0
19/01:52pm 18.2 10.6 0.4 30 7.9 W 30 54 16 29 1003.5 1003.4 0.0
19/01:30pm 17.9 9.7 0.1 30 7.9 W 33 48 18 26 1003.6 1003.5 0.0
19/01:04pm 17.9 10.0 1.0 32 7.6 W 32 50 17 27 1003.7 1003.6 0.0
19/01:00pm 17.9 9.4 0.6 31 7.8 W 35 52 19 28 1003.6 1003.5 0.0
19/12:34pm 17.9 11.1 5.2 43 6.2 W 30 50 16 27 1003.9 1003.8 0.0
19/12:30pm 16.9 9.5 5.2 46 5.7 W 33 50 18 27 1003.9 1003.8 0.0
19/12:00pm 17.5 10.3 4.8 43 6.2 W 32 50 17 27 1004.1 1004.0 0.0
19/11:53am 16.3 9.7 4.4 45 5.7 W 28 50 15 27 1004.1 1004.0 0.0
19/11:30am 15.4 9.1 5.6 52 4.8 W 28 43 15 23 1004.4 1004.3 0.0
19/11:13am 15.1 9.0 6.4 56 4.3 W 28 48 15 26 1004.7 1004.6 0.0
19/11:00am 16.8 10.4 6.9 52 5.0 W 30 44 16 24 1004.7 1004.6 0.0
19/10:30am 14.8 8.3 6.6 58 4.0 WSW 30 46 16 25 1005.0 1004.9 0.0
19/10:29am 15.2 9.2 7.0 58 4.1 WSW 28 46 15 25 1004.9 1004.8 0.0
19/10:00am 16.2 11.6 9.8 66 3.4 WSW 24 35 13 19 1004.8 1004.7 0.0

Other formats

Comma delimited format used in spreadsheet applications
http://www.bom.gov.au/fwo/IDW60801/IDW60801.94628.axf

JavaScript Object Notation format (JSON) in row-major order
http://www.bom.gov.au/fwo/IDW60801/IDW60801.94628.json

Data quality

Most of these data are generated automatically and are frequently updated. Quality checks on data are not normally performed. It is possible for incorrect values to appear. Refer to information at About Latest Weather Observations and please check the disclaimer before using these data.